Terminal Aerodrome Forecast
Issued by NWS

Home | Current Version | Previous Version | Text Only | Print | Product List | Glossary On
Versions: 1 2 3 4 5 6 7 8 9 10 11 12 13 14 15 16 17 18
626
FTUS43 KIWX 131140
TAFSBN
TAF
KSBN 131140Z 1312/1412 18009KT P6SM BKN040
     FM131500 16013G23KT P6SM SCT040 BKN080
     FM132000 21013G20KT 4SM -SN OVC035
      TEMPO 1321/1401 2SM -SN OVC020
     FM140100 32012G19KT 3SM -SN OVC015
     FM140400 35012KT P6SM VCSH BKN035
     FM140600 36010KT P6SM SCT060=

USA.gov is the U.S. government's official web portal to all federal, state and local government web resources and services.